sensor_id;sensor_type;location;lat;lon;timestamp;temperature;humidity
46217;DHT22;47258;59.424;13.482;2023-12-28T00:02:01;-8.30;99.90
46217;DHT22;47258;59.424;13.482;2023-12-28T00:04:28;-8.30;99.90
46217;DHT22;47258;59.424;13.482;2023-12-28T00:06:55;-8.20;99.90
46217;DHT22;47258;59.424;13.482;2023-12-28T00:09:24;-8.20;99.90
46217;DHT22;47258;59.424;13.482;2023-12-28T00:11:51;-8.20;99.90
46217;DHT22;47258;59.424;13.482;2023-12-28T00:14:18;-8.20;99.90
46217;DHT22;47258;59.424;13.482;2023-12-28T00:16:45;-8.20;99.90
46217;DHT22;47258;59.424;13.482;2023-12-28T00:19:12;-8.20;99.90
46217;DHT22;47258;59.424;13.482;2023-12-28T00:21:39;-8.20;99.90
46217;DHT22;47258;59.424;13.482;2023-12-28T00:24:06;-8.20;99.90
46217;DHT22;47258;59.424;13.482;2023-12-28T00:26:35;-8.20;99.90
46217;DHT22;47258;59.424;13.482;2023-12-28T00:29:02;-8.20;99.90
46217;DHT22;47258;59.424;13.482;2023-12-28T00:31:29;-8.20;99.90
46217;DHT22;47258;59.424;13.482;2023-12-28T00:33:56;-8.20;99.90
46217;DHT22;47258;59.424;13.482;2023-12-28T00:36:23;-8.30;99.90
46217;DHT22;47258;59.424;13.482;2023-12-28T00:38:51;-8.30;99.90
46217;DHT22;47258;59.424;13.482;2023-12-28T00:41:18;-8.30;99.90
46217;DHT22;47258;59.424;13.482;2023-12-28T00:43:47;-8.30;99.90
46217;DHT22;47258;59.424;13.482;2023-12-28T00:46:14;-8.30;99.90
46217;DHT22;47258;59.424;13.482;2023-12-28T00:48:41;-8.30;99.90
46217;DHT22;47258;59.424;13.482;2023-12-28T00:51:08;-8.30;99.90
46217;DHT22;47258;59.424;13.482;2023-12-28T00:53:35;-8.20;99.90
46217;DHT22;47258;59.424;13.482;2023-12-28T00:56:02;-8.20;99.90
46217;DHT22;47258;59.424;13.482;2023-12-28T00:58:29;-8.20;99.90
46217;DHT22;47258;59.424;13.482;2023-12-28T01:00:57;-8.20;99.90
46217;DHT22;47258;59.424;13.482;2023-12-28T01:03:24;-8.20;99.90
46217;DHT22;47258;59.424;13.482;2023-12-28T01:05:51;-8.10;99.90
46217;DHT22;47258;59.424;13.482;2023-12-28T01:08:18;-8.10;99.90
46217;DHT22;47258;59.424;13.482;2023-12-28T01:10:45;-8.00;99.90
46217;DHT22;47258;59.424;13.482;2023-12-28T01:13:12;-8.00;99.90
46217;DHT22;47258;59.424;13.482;2023-12-28T01:15:39;-8.00;99.90
46217;DHT22;47258;59.424;13.482;2023-12-28T01:18:08;-7.90;99.90
46217;DHT22;47258;59.424;13.482;2023-12-28T01:20:35;-7.80;99.90
46217;DHT22;47258;59.424;13.482;2023-12-28T01:23:03;-7.70;99.90
46217;DHT22;47258;59.424;13.482;2023-12-28T01:25:30;-7.70;99.90
46217;DHT22;47258;59.424;13.482;2023-12-28T01:27:57;-7.60;99.90
46217;DHT22;47258;59.424;13.482;2023-12-28T01:30:24;-7.50;99.90
46217;DHT22;47258;59.424;13.482;2023-12-28T01:32:51;-7.50;99.90
46217;DHT22;47258;59.424;13.482;2023-12-28T01:35:20;-7.40;99.90
46217;DHT22;47258;59.424;13.482;2023-12-28T01:37:47;-7.30;99.90
46217;DHT22;47258;59.424;13.482;2023-12-28T01:40:15;-7.30;99.90
46217;DHT22;47258;59.424;13.482;2023-12-28T01:42:42;-7.30;99.90
46217;DHT22;47258;59.424;13.482;2023-12-28T01:45:09;-7.30;99.90
46217;DHT22;47258;59.424;13.482;2023-12-28T01:47:36;-7.40;99.90
46217;DHT22;47258;59.424;13.482;2023-12-28T01:50:04;-7.30;99.90
46217;DHT22;47258;59.424;13.482;2023-12-28T01:52:34;-7.30;99.90
46217;DHT22;47258;59.424;13.482;2023-12-28T01:55:01;-7.40;99.90
46217;DHT22;47258;59.424;13.482;2023-12-28T01:57:28;-7.40;99.90
46217;DHT22;47258;59.424;13.482;2023-12-28T01:59:56;-7.50;99.90
46217;DHT22;47258;59.424;13.482;2023-12-28T02:02:24;-7.50;99.90
46217;DHT22;47258;59.424;13.482;2023-12-28T02:04:51;-7.50;99.90
46217;DHT22;47258;59.424;13.482;2023-12-28T02:07:18;-7.50;99.90
46217;DHT22;47258;59.424;13.482;2023-12-28T02:09:48;-7.50;99.90
46217;DHT22;47258;59.424;13.482;2023-12-28T02:12:15;-7.50;99.90
46217;DHT22;47258;59.424;13.482;2023-12-28T02:14:42;-7.50;99.90
46217;DHT22;47258;59.424;13.482;2023-12-28T02:17:18;-7.50;99.90
46217;DHT22;47258;59.424;13.482;2023-12-28T02:19:50;-7.50;99.90
46217;DHT22;47258;59.424;13.482;2023-12-28T02:22:17;-7.50;99.90
46217;DHT22;47258;59.424;13.482;2023-12-28T02:25:07;-7.50;99.90
46217;DHT22;47258;59.424;13.482;2023-12-28T02:27:36;-7.50;99.90
46217;DHT22;47258;59.424;13.482;2023-12-28T02:30:03;-7.50;99.90
46217;DHT22;47258;59.424;13.482;2023-12-28T02:32:45;-7.40;99.90
46217;DHT22;47258;59.424;13.482;2023-12-28T02:35:18;-7.30;99.90
46217;DHT22;47258;59.424;13.482;2023-12-28T02:37:49;-7.30;99.90
46217;DHT22;47258;59.424;13.482;2023-12-28T02:40:19;-7.20;99.90
46217;DHT22;47258;59.424;13.482;2023-12-28T02:42:48;-7.20;99.90
46217;DHT22;47258;59.424;13.482;2023-12-28T02:45:15;-7.10;99.90
46217;DHT22;47258;59.424;13.482;2023-12-28T02:47:42;-7.00;99.90
46217;DHT22;47258;59.424;13.482;2023-12-28T02:50:10;-7.00;99.90
46217;DHT22;47258;59.424;13.482;2023-12-28T02:52:37;-6.90;99.90
46217;DHT22;47258;59.424;13.482;2023-12-28T02:55:05;-6.80;99.90
46217;DHT22;47258;59.424;13.482;2023-12-28T02:57:34;-6.70;99.90
46217;DHT22;47258;59.424;13.482;2023-12-28T03:00:05;-6.50;99.90
46217;DHT22;47258;59.424;13.482;2023-12-28T03:02:34;-6.30;99.90
46217;DHT22;47258;59.424;13.482;2023-12-28T03:05:02;-6.20;99.90
46217;DHT22;47258;59.424;13.482;2023-12-28T03:07:29;-6.00;99.90
46217;DHT22;47258;59.424;13.482;2023-12-28T03:09:56;-5.80;99.90
46217;DHT22;47258;59.424;13.482;2023-12-28T03:12:23;-5.70;99.90
46217;DHT22;47258;59.424;13.482;2023-12-28T03:14:52;-5.50;99.90
46217;DHT22;47258;59.424;13.482;2023-12-28T03:17:19;-5.40;99.90
46217;DHT22;47258;59.424;13.482;2023-12-28T03:19:46;-5.30;99.90
46217;DHT22;47258;59.424;13.482;2023-12-28T03:22:13;-5.20;99.90
46217;DHT22;47258;59.424;13.482;2023-12-28T03:24:41;-5.10;99.90
46217;DHT22;47258;59.424;13.482;2023-12-28T03:27:08;-5.00;99.90
46217;DHT22;47258;59.424;13.482;2023-12-28T03:29:35;-5.00;99.90
46217;DHT22;47258;59.424;13.482;2023-12-28T03:32:04;-4.90;99.90
46217;DHT22;47258;59.424;13.482;2023-12-28T03:34:31;-4.90;99.90
46217;DHT22;47258;59.424;13.482;2023-12-28T03:36:59;-4.80;99.90
46217;DHT22;47258;59.424;13.482;2023-12-28T03:39:26;-4.70;99.90
46217;DHT22;47258;59.424;13.482;2023-12-28T03:41:54;-4.70;99.90
46217;DHT22;47258;59.424;13.482;2023-12-28T03:44:21;-4.60;99.90
46217;DHT22;47258;59.424;13.482;2023-12-28T03:46:48;-4.60;99.90
46217;DHT22;47258;59.424;13.482;2023-12-28T03:49:18;-4.60;99.90
46217;DHT22;47258;59.424;13.482;2023-12-28T03:51:46;-4.60;99.90
46217;DHT22;47258;59.424;13.482;2023-12-28T03:54:16;-4.50;99.90
46217;DHT22;47258;59.424;13.482;2023-12-28T03:56:43;-4.50;99.90
46217;DHT22;47258;59.424;13.482;2023-12-28T03:59:10;-4.50;99.90
46217;DHT22;47258;59.424;13.482;2023-12-28T04:01:37;-4.50;99.90
46217;DHT22;47258;59.424;13.482;2023-12-28T04:04:05;-4.50;99.90
46217;DHT22;47258;59.424;13.482;2023-12-28T04:06:33;-4.40;99.90
46217;DHT22;47258;59.424;13.482;2023-12-28T04:09:00;-4.40;99.90
46217;DHT22;47258;59.424;13.482;2023-12-28T04:11:27;-4.30;99.90
46217;DHT22;47258;59.424;13.482;2023-12-28T04:13:54;-4.20;99.90
46217;DHT22;47258;59.424;13.482;2023-12-28T04:16:21;-4.20;99.90
46217;DHT22;47258;59.424;13.482;2023-12-28T04:18:48;-4.10;99.90
46217;DHT22;47258;59.424;13.482;2023-12-28T04:21:15;-4.10;99.90
46217;DHT22;47258;59.424;13.482;2023-12-28T04:23:44;-4.00;99.90
46217;DHT22;47258;59.424;13.482;2023-12-28T04:26:11;-4.00;99.90
46217;DHT22;47258;59.424;13.482;2023-12-28T04:28:39;-3.90;99.90
46217;DHT22;47258;59.424;13.482;2023-12-28T04:31:06;-3.90;99.90
46217;DHT22;47258;59.424;13.482;2023-12-28T04:33:33;-3.80;99.90
46217;DHT22;47258;59.424;13.482;2023-12-28T04:36:01;-3.80;99.90
46217;DHT22;47258;59.424;13.482;2023-12-28T04:38:29;-3.80;99.90
46217;DHT22;47258;59.424;13.482;2023-12-28T04:40:58;-3.80;99.90
46217;DHT22;47258;59.424;13.482;2023-12-28T04:43:25;-3.80;99.90
46217;DHT22;47258;59.424;13.482;2023-12-28T04:45:52;-3.70;99.90
46217;DHT22;47258;59.424;13.482;2023-12-28T04:48:19;-3.80;99.90
46217;DHT22;47258;59.424;13.482;2023-12-28T04:50:49;-3.70;99.90
46217;DHT22;47258;59.424;13.482;2023-12-28T04:53:16;-3.70;99.90
46217;DHT22;47258;59.424;13.482;2023-12-28T04:55:43;-3.70;99.90
46217;DHT22;47258;59.424;13.482;2023-12-28T04:58:12;-3.70;99.90
46217;DHT22;47258;59.424;13.482;2023-12-28T05:00:39;-3.70;99.90
46217;DHT22;47258;59.424;13.482;2023-12-28T05:03:06;-3.70;99.90
46217;DHT22;47258;59.424;13.482;2023-12-28T05:05:33;-3.60;99.90
46217;DHT22;47258;59.424;13.482;2023-12-28T05:08:00;-3.60;99.90
46217;DHT22;47258;59.424;13.482;2023-12-28T05:10:27;-3.60;99.90
46217;DHT22;47258;59.424;13.482;2023-12-28T05:12:54;-3.50;99.90
46217;DHT22;47258;59.424;13.482;2023-12-28T05:15:22;-3.50;99.90
46217;DHT22;47258;59.424;13.482;2023-12-28T05:17:49;-3.50;99.90
46217;DHT22;47258;59.424;13.482;2023-12-28T05:20:16;-3.50;99.90
46217;DHT22;47258;59.424;13.482;2023-12-28T05:22:44;-3.50;99.90
46217;DHT22;47258;59.424;13.482;2023-12-28T05:25:11;-3.60;99.90
46217;DHT22;47258;59.424;13.482;2023-12-28T05:27:38;-3.50;99.90
46217;DHT22;47258;59.424;13.482;2023-12-28T05:30:06;-3.50;99.90
46217;DHT22;47258;59.424;13.482;2023-12-28T05:32:35;-3.50;99.90
46217;DHT22;47258;59.424;13.482;2023-12-28T05:35:02;-3.50;99.90
46217;DHT22;47258;59.424;13.482;2023-12-28T05:37:30;-3.50;99.90
46217;DHT22;47258;59.424;13.482;2023-12-28T05:39:57;-3.40;99.90
46217;DHT22;47258;59.424;13.482;2023-12-28T05:42:24;-3.50;99.90
46217;DHT22;47258;59.424;13.482;2023-12-28T05:44:51;-3.40;99.90
46217;DHT22;47258;59.424;13.482;2023-12-28T05:47:18;-3.40;99.90
46217;DHT22;47258;59.424;13.482;2023-12-28T05:49:46;-3.40;99.90
46217;DHT22;47258;59.424;13.482;2023-12-28T05:52:13;-3.40;99.90
46217;DHT22;47258;59.424;13.482;2023-12-28T05:54:42;-3.40;99.90
46217;DHT22;47258;59.424;13.482;2023-12-28T05:57:09;-3.30;99.90
46217;DHT22;47258;59.424;13.482;2023-12-28T05:59:37;-3.30;99.90
46217;DHT22;47258;59.424;13.482;2023-12-28T06:02:05;-3.30;99.90
46217;DHT22;47258;59.424;13.482;2023-12-28T06:04:32;-3.30;99.90
46217;DHT22;47258;59.424;13.482;2023-12-28T06:07:02;-3.30;99.90
46217;DHT22;47258;59.424;13.482;2023-12-28T06:09:30;-3.30;99.90
46217;DHT22;47258;59.424;13.482;2023-12-28T06:11:57;-3.20;99.90
46217;DHT22;47258;59.424;13.482;2023-12-28T06:14:24;-3.20;99.90
46217;DHT22;47258;59.424;13.482;2023-12-28T06:16:51;-3.10;99.90
46217;DHT22;47258;59.424;13.482;2023-12-28T06:19:18;-3.10;99.90
46217;DHT22;47258;59.424;13.482;2023-12-28T06:21:45;-3.10;99.90
46217;DHT22;47258;59.424;13.482;2023-12-28T06:24:13;-3.10;99.90
46217;DHT22;47258;59.424;13.482;2023-12-28T06:26:40;-3.00;99.90
46217;DHT22;47258;59.424;13.482;2023-12-28T06:29:08;-3.00;99.90
46217;DHT22;47258;59.424;13.482;2023-12-28T06:31:35;-3.00;99.90
46217;DHT22;47258;59.424;13.482;2023-12-28T06:34:02;-2.90;99.90
46217;DHT22;47258;59.424;13.482;2023-12-28T06:36:29;-2.90;99.90
46217;DHT22;47258;59.424;13.482;2023-12-28T06:38:57;-2.80;99.90
46217;DHT22;47258;59.424;13.482;2023-12-28T06:41:26;-2.80;99.90
46217;DHT22;47258;59.424;13.482;2023-12-28T06:43:53;-2.80;99.90
46217;DHT22;47258;59.424;13.482;2023-12-28T06:46:20;-2.70;99.90
46217;DHT22;47258;59.424;13.482;2023-12-28T06:48:47;-2.70;99.90
46217;DHT22;47258;59.424;13.482;2023-12-28T06:51:16;-2.60;99.90
46217;DHT22;47258;59.424;13.482;2023-12-28T06:53:45;-2.60;99.90
46217;DHT22;47258;59.424;13.482;2023-12-28T06:56:11;-2.50;99.90
46217;DHT22;47258;59.424;13.482;2023-12-28T06:58:40;-2.50;99.90
46217;DHT22;47258;59.424;13.482;2023-12-28T07:01:07;-2.50;99.90
46217;DHT22;47258;59.424;13.482;2023-12-28T07:03:34;-2.40;99.90
46217;DHT22;47258;59.424;13.482;2023-12-28T07:06:02;-2.40;99.90
46217;DHT22;47258;59.424;13.482;2023-12-28T07:08:30;-2.40;99.90
46217;DHT22;47258;59.424;13.482;2023-12-28T07:10:57;-2.40;99.90
46217;DHT22;47258;59.424;13.482;2023-12-28T07:13:24;-2.30;99.90
46217;DHT22;47258;59.424;13.482;2023-12-28T07:15:52;-2.30;99.90
46217;DHT22;47258;59.424;13.482;2023-12-28T07:18:20;-2.30;99.90
46217;DHT22;47258;59.424;13.482;2023-12-28T07:20:47;-2.30;99.90
46217;DHT22;47258;59.424;13.482;2023-12-28T07:23:14;-2.30;99.90
46217;DHT22;47258;59.424;13.482;2023-12-28T07:25:41;-2.30;99.90
46217;DHT22;47258;59.424;13.482;2023-12-28T07:28:08;-2.30;99.90
46217;DHT22;47258;59.424;13.482;2023-12-28T07:30:35;-2.30;99.90
46217;DHT22;47258;59.424;13.482;2023-12-28T07:33:04;-2.30;99.90
46217;DHT22;47258;59.424;13.482;2023-12-28T07:35:31;-2.30;99.90
46217;DHT22;47258;59.424;13.482;2023-12-28T07:37:58;-2.30;99.90
46217;DHT22;47258;59.424;13.482;2023-12-28T07:40:25;-2.30;99.90
46217;DHT22;47258;59.424;13.482;2023-12-28T07:42:53;-2.30;99.90
46217;DHT22;47258;59.424;13.482;2023-12-28T07:45:20;-2.30;99.90
46217;DHT22;47258;59.424;13.482;2023-12-28T07:47:49;-2.30;99.90
46217;DHT22;47258;59.424;13.482;2023-12-28T07:50:18;-2.30;99.90
46217;DHT22;47258;59.424;13.482;2023-12-28T07:52:45;-2.30;99.90
46217;DHT22;47258;59.424;13.482;2023-12-28T07:55:12;-2.30;99.90
46217;DHT22;47258;59.424;13.482;2023-12-28T07:57:39;-2.30;99.90
46217;DHT22;47258;59.424;13.482;2023-12-28T08:00:07;-2.20;99.90
46217;DHT22;47258;59.424;13.482;2023-12-28T08:02:34;-2.20;99.90
46217;DHT22;47258;59.424;13.482;2023-12-28T08:05:01;-2.20;99.90
46217;DHT22;47258;59.424;13.482;2023-12-28T08:07:30;-2.20;99.90
46217;DHT22;47258;59.424;13.482;2023-12-28T08:09:57;-2.20;99.90
46217;DHT22;47258;59.424;13.482;2023-12-28T08:12:24;-2.20;99.90
46217;DHT22;47258;59.424;13.482;2023-12-28T08:14:53;-2.20;99.90
46217;DHT22;47258;59.424;13.482;2023-12-28T08:17:19;-2.20;99.90
46217;DHT22;47258;59.424;13.482;2023-12-28T08:19:46;-2.20;99.90
46217;DHT22;47258;59.424;13.482;2023-12-28T08:22:13;-2.20;99.90
46217;DHT22;47258;59.424;13.482;2023-12-28T08:24:42;-2.20;99.90
46217;DHT22;47258;59.424;13.482;2023-12-28T08:27:09;-2.10;99.90
46217;DHT22;47258;59.424;13.482;2023-12-28T08:29:36;-2.10;99.90
46217;DHT22;47258;59.424;13.482;2023-12-28T08:32:03;-2.10;99.90
46217;DHT22;47258;59.424;13.482;2023-12-28T08:34:30;-2.10;99.90
46217;DHT22;47258;59.424;13.482;2023-12-28T08:36:57;-2.10;99.90
46217;DHT22;47258;59.424;13.482;2023-12-28T08:39:24;-2.10;99.90
46217;DHT22;47258;59.424;13.482;2023-12-28T08:41:53;-2.00;99.90
46217;DHT22;47258;59.424;13.482;2023-12-28T08:44:20;-2.00;99.90
46217;DHT22;47258;59.424;13.482;2023-12-28T08:46:47;-2.00;99.90
46217;DHT22;47258;59.424;13.482;2023-12-28T08:49:14;-2.00;99.90
46217;DHT22;47258;59.424;13.482;2023-12-28T08:51:41;-2.00;99.90
46217;DHT22;47258;59.424;13.482;2023-12-28T08:54:09;-1.90;99.90
46217;DHT22;47258;59.424;13.482;2023-12-28T08:56:36;-1.90;99.90
46217;DHT22;47258;59.424;13.482;2023-12-28T08:59:04;-1.90;99.90
46217;DHT22;47258;59.424;13.482;2023-12-28T09:01:31;-1.90;99.90
46217;DHT22;47258;59.424;13.482;2023-12-28T09:03:58;-1.80;99.90
46217;DHT22;47258;59.424;13.482;2023-12-28T09:06:27;-1.80;99.90
46217;DHT22;47258;59.424;13.482;2023-12-28T09:08:54;-1.80;99.90
46217;DHT22;47258;59.424;13.482;2023-12-28T09:11:22;-1.70;99.90
46217;DHT22;47258;59.424;13.482;2023-12-28T09:13:49;-1.70;99.90
46217;DHT22;47258;59.424;13.482;2023-12-28T09:16:17;-1.70;99.90
46217;DHT22;47258;59.424;13.482;2023-12-28T09:18:44;-1.70;99.90
46217;DHT22;47258;59.424;13.482;2023-12-28T09:21:11;-1.60;99.90
46217;DHT22;47258;59.424;13.482;2023-12-28T09:23:38;-1.60;99.90
46217;DHT22;47258;59.424;13.482;2023-12-28T09:26:06;-1.60;99.90
46217;DHT22;47258;59.424;13.482;2023-12-28T09:28:33;-1.50;99.90
46217;DHT22;47258;59.424;13.482;2023-12-28T09:31:01;-1.50;99.90
46217;DHT22;47258;59.424;13.482;2023-12-28T09:33:30;-1.50;99.90
46217;DHT22;47258;59.424;13.482;2023-12-28T09:35:57;-1.50;99.90
46217;DHT22;47258;59.424;13.482;2023-12-28T09:38:25;-1.40;99.90
46217;DHT22;47258;59.424;13.482;2023-12-28T09:40:54;-1.40;99.90
46217;DHT22;47258;59.424;13.482;2023-12-28T09:43:22;-1.30;99.90
46217;DHT22;47258;59.424;13.482;2023-12-28T09:45:51;-1.30;99.90
46217;DHT22;47258;59.424;13.482;2023-12-28T09:48:19;-1.30;99.90
46217;DHT22;47258;59.424;13.482;2023-12-28T09:50:49;-1.20;99.90
46217;DHT22;47258;59.424;13.482;2023-12-28T09:53:16;-1.20;99.90
46217;DHT22;47258;59.424;13.482;2023-12-28T09:55:43;-1.10;99.90
46217;DHT22;47258;59.424;13.482;2023-12-28T09:58:12;-1.10;99.90
46217;DHT22;47258;59.424;13.482;2023-12-28T10:00:41;-1.10;99.90
46217;DHT22;47258;59.424;13.482;2023-12-28T10:03:12;-1.10;99.90
46217;DHT22;47258;59.424;13.482;2023-12-28T10:05:41;-1.00;99.90
46217;DHT22;47258;59.424;13.482;2023-12-28T10:08:11;-1.00;99.90
46217;DHT22;47258;59.424;13.482;2023-12-28T10:10:38;-1.00;99.90
46217;DHT22;47258;59.424;13.482;2023-12-28T10:13:06;-1.00;99.90
46217;DHT22;47258;59.424;13.482;2023-12-28T10:15:35;-0.90;99.90
46217;DHT22;47258;59.424;13.482;2023-12-28T10:18:03;-0.90;99.90
46217;DHT22;47258;59.424;13.482;2023-12-28T10:20:31;-0.80;99.90
46217;DHT22;47258;59.424;13.482;2023-12-28T10:22:58;-0.80;99.90
46217;DHT22;47258;59.424;13.482;2023-12-28T10:25:28;-0.80;99.90
46217;DHT22;47258;59.424;13.482;2023-12-28T10:27:55;-0.70;99.90
46217;DHT22;47258;59.424;13.482;2023-12-28T10:30:22;-0.70;99.90
46217;DHT22;47258;59.424;13.482;2023-12-28T10:32:49;-0.70;99.90
46217;DHT22;47258;59.424;13.482;2023-12-28T10:35:17;-0.70;99.90
46217;DHT22;47258;59.424;13.482;2023-12-28T10:37:44;-0.70;99.90
46217;DHT22;47258;59.424;13.482;2023-12-28T10:40:13;-0.70;99.90
46217;DHT22;47258;59.424;13.482;2023-12-28T10:42:49;-0.70;99.90
46217;DHT22;47258;59.424;13.482;2023-12-28T10:45:18;-0.60;99.90
46217;DHT22;47258;59.424;13.482;2023-12-28T10:47:59;-0.60;99.90
46217;DHT22;47258;59.424;13.482;2023-12-28T10:50:30;-0.60;99.90
46217;DHT22;47258;59.424;13.482;2023-12-28T10:53:18;-0.50;99.90
46217;DHT22;47258;59.424;13.482;2023-12-28T10:55:53;-0.50;99.90
46217;DHT22;47258;59.424;13.482;2023-12-28T10:58:33;-0.40;99.90
46217;DHT22;47258;59.424;13.482;2023-12-28T11:01:05;-0.40;99.90
46217;DHT22;47258;59.424;13.482;2023-12-28T11:03:37;-0.30;99.90
46217;DHT22;47258;59.424;13.482;2023-12-28T11:06:08;-0.30;99.90
46217;DHT22;47258;59.424;13.482;2023-12-28T11:08:36;-0.20;99.90
46217;DHT22;47258;59.424;13.482;2023-12-28T11:11:06;-0.10;99.90
46217;DHT22;47258;59.424;13.482;2023-12-28T11:13:36;-0.10;99.90
46217;DHT22;47258;59.424;13.482;2023-12-28T11:16:05;0.00;99.90
46217;DHT22;47258;59.424;13.482;2023-12-28T11:18:32;0.00;99.90
46217;DHT22;47258;59.424;13.482;2023-12-28T11:20:59;0.10;99.90
46217;DHT22;47258;59.424;13.482;2023-12-28T11:23:27;0.10;99.90
46217;DHT22;47258;59.424;13.482;2023-12-28T11:25:55;0.10;99.90
46217;DHT22;47258;59.424;13.482;2023-12-28T11:28:23;0.10;99.90
46217;DHT22;47258;59.424;13.482;2023-12-28T11:30:52;0.10;99.90
46217;DHT22;47258;59.424;13.482;2023-12-28T11:33:19;0.10;99.90
46217;DHT22;47258;59.424;13.482;2023-12-28T11:35:47;0.20;99.90
46217;DHT22;47258;59.424;13.482;2023-12-28T11:38:15;0.20;99.90
46217;DHT22;47258;59.424;13.482;2023-12-28T11:40:45;0.20;99.90
46217;DHT22;47258;59.424;13.482;2023-12-28T11:43:18;0.30;99.90
46217;DHT22;47258;59.424;13.482;2023-12-28T11:45:50;0.30;99.90
46217;DHT22;47258;59.424;13.482;2023-12-28T11:48:26;0.30;99.90
46217;DHT22;47258;59.424;13.482;2023-12-28T11:50:55;0.40;99.90
46217;DHT22;47258;59.424;13.482;2023-12-28T11:53:24;0.40;99.90
46217;DHT22;47258;59.424;13.482;2023-12-28T11:55:51;0.40;99.90
46217;DHT22;47258;59.424;13.482;2023-12-28T11:58:19;0.40;99.90
46217;DHT22;47258;59.424;13.482;2023-12-28T12:00:47;0.40;99.90
46217;DHT22;47258;59.424;13.482;2023-12-28T12:03:14;0.40;99.90
46217;DHT22;47258;59.424;13.482;2023-12-28T12:05:42;0.50;99.90
46217;DHT22;47258;59.424;13.482;2023-12-28T12:08:10;0.50;99.90
46217;DHT22;47258;59.424;13.482;2023-12-28T12:10:39;0.60;99.90
46217;DHT22;47258;59.424;13.482;2023-12-28T12:13:07;0.60;99.90
46217;DHT22;47258;59.424;13.482;2023-12-28T12:15:34;0.70;99.90
46217;DHT22;47258;59.424;13.482;2023-12-28T12:18:02;0.70;99.90
46217;DHT22;47258;59.424;13.482;2023-12-28T12:20:29;0.70;99.90
46217;DHT22;47258;59.424;13.482;2023-12-28T12:22:59;0.80;99.90
46217;DHT22;47258;59.424;13.482;2023-12-28T12:25:26;0.90;99.90
46217;DHT22;47258;59.424;13.482;2023-12-28T12:27:55;0.90;99.90
46217;DHT22;47258;59.424;13.482;2023-12-28T12:30:22;0.90;99.90
46217;DHT22;47258;59.424;13.482;2023-12-28T12:32:49;1.00;99.90
46217;DHT22;47258;59.424;13.482;2023-12-28T12:35:16;1.00;99.90
46217;DHT22;47258;59.424;13.482;2023-12-28T12:37:47;1.00;99.90
46217;DHT22;47258;59.424;13.482;2023-12-28T12:40:18;1.00;99.90
46217;DHT22;47258;59.424;13.482;2023-12-28T12:42:52;1.00;99.90
46217;DHT22;47258;59.424;13.482;2023-12-28T12:45:20;1.10;99.90
46217;DHT22;47258;59.424;13.482;2023-12-28T12:47:48;1.10;99.90
46217;DHT22;47258;59.424;13.482;2023-12-28T12:50:16;1.10;99.90
46217;DHT22;47258;59.424;13.482;2023-12-28T12:52:43;1.20;99.90
46217;DHT22;47258;59.424;13.482;2023-12-28T12:55:11;1.10;99.90
46217;DHT22;47258;59.424;13.482;2023-12-28T12:57:40;1.20;99.90
46217;DHT22;47258;59.424;13.482;2023-12-28T13:00:09;1.20;99.90
46217;DHT22;47258;59.424;13.482;2023-12-28T13:02:37;1.20;99.90
46217;DHT22;47258;59.424;13.482;2023-12-28T13:05:05;1.20;99.90
46217;DHT22;47258;59.424;13.482;2023-12-28T13:07:32;1.20;99.90
46217;DHT22;47258;59.424;13.482;2023-12-28T13:10:00;1.20;99.90
46217;DHT22;47258;59.424;13.482;2023-12-28T13:12:27;1.20;99.90
46217;DHT22;47258;59.424;13.482;2023-12-28T13:14:55;1.30;99.90
46217;DHT22;47258;59.424;13.482;2023-12-28T13:17:22;1.30;99.90
46217;DHT22;47258;59.424;13.482;2023-12-28T13:19:49;1.30;99.90
46217;DHT22;47258;59.424;13.482;2023-12-28T13:22:16;1.20;99.90
46217;DHT22;47258;59.424;13.482;2023-12-28T13:24:43;1.20;99.90
46217;DHT22;47258;59.424;13.482;2023-12-28T13:27:10;1.20;99.90
46217;DHT22;47258;59.424;13.482;2023-12-28T13:29:38;1.20;99.90
46217;DHT22;47258;59.424;13.482;2023-12-28T13:32:06;1.20;99.90
46217;DHT22;47258;59.424;13.482;2023-12-28T13:34:33;1.20;99.90
46217;DHT22;47258;59.424;13.482;2023-12-28T13:37:00;1.20;99.90
46217;DHT22;47258;59.424;13.482;2023-12-28T13:39:28;1.20;99.90
46217;DHT22;47258;59.424;13.482;2023-12-28T13:41:56;1.10;99.90
46217;DHT22;47258;59.424;13.482;2023-12-28T13:44:23;1.10;99.90
46217;DHT22;47258;59.424;13.482;2023-12-28T13:46:50;1.10;99.90
46217;DHT22;47258;59.424;13.482;2023-12-28T13:49:21;1.10;99.90
46217;DHT22;47258;59.424;13.482;2023-12-28T13:51:48;1.10;99.90
46217;DHT22;47258;59.424;13.482;2023-12-28T13:54:17;1.10;99.90
46217;DHT22;47258;59.424;13.482;2023-12-28T13:56:45;1.10;99.90
46217;DHT22;47258;59.424;13.482;2023-12-28T13:59:13;1.10;99.90
46217;DHT22;47258;59.424;13.482;2023-12-28T14:01:40;1.10;99.90
46217;DHT22;47258;59.424;13.482;2023-12-28T14:04:07;1.10;99.90
46217;DHT22;47258;59.424;13.482;2023-12-28T14:06:36;1.10;99.90
46217;DHT22;47258;59.424;13.482;2023-12-28T14:09:08;1.00;99.90
46217;DHT22;47258;59.424;13.482;2023-12-28T14:11:35;1.00;99.90
46217;DHT22;47258;59.424;13.482;2023-12-28T14:14:05;1.00;99.90
46217;DHT22;47258;59.424;13.482;2023-12-28T14:16:33;1.00;99.90
46217;DHT22;47258;59.424;13.482;2023-12-28T14:19:00;1.00;99.90
46217;DHT22;47258;59.424;13.482;2023-12-28T14:21:27;1.00;99.90
46217;DHT22;47258;59.424;13.482;2023-12-28T14:23:56;1.00;99.90
46217;DHT22;47258;59.424;13.482;2023-12-28T14:26:24;1.00;99.90
46217;DHT22;47258;59.424;13.482;2023-12-28T14:28:52;0.90;99.90
46217;DHT22;47258;59.424;13.482;2023-12-28T14:31:19;0.80;99.90
46217;DHT22;47258;59.424;13.482;2023-12-28T14:33:47;0.80;99.90
46217;DHT22;47258;59.424;13.482;2023-12-28T14:36:22;0.70;99.90
46217;DHT22;47258;59.424;13.482;2023-12-28T14:38:52;0.60;99.90
46217;DHT22;47258;59.424;13.482;2023-12-28T14:41:21;0.50;99.90
46217;DHT22;47258;59.424;13.482;2023-12-28T14:43:48;0.50;99.90
46217;DHT22;47258;59.424;13.482;2023-12-28T14:46:15;0.40;99.90
46217;DHT22;47258;59.424;13.482;2023-12-28T14:48:42;0.40;99.90
46217;DHT22;47258;59.424;13.482;2023-12-28T14:51:09;0.40;99.90
46217;DHT22;47258;59.424;13.482;2023-12-28T14:53:36;0.40;99.90
46217;DHT22;47258;59.424;13.482;2023-12-28T14:56:03;0.40;99.90
46217;DHT22;47258;59.424;13.482;2023-12-28T14:58:31;0.30;99.90
46217;DHT22;47258;59.424;13.482;2023-12-28T15:00:58;0.30;99.90
46217;DHT22;47258;59.424;13.482;2023-12-28T15:03:25;0.30;99.90
46217;DHT22;47258;59.424;13.482;2023-12-28T15:05:52;0.30;99.90
46217;DHT22;47258;59.424;13.482;2023-12-28T15:08:21;0.30;99.90
46217;DHT22;47258;59.424;13.482;2023-12-28T15:10:49;0.20;99.90
46217;DHT22;47258;59.424;13.482;2023-12-28T15:13:16;0.10;99.90
46217;DHT22;47258;59.424;13.482;2023-12-28T15:15:45;0.10;99.90
46217;DHT22;47258;59.424;13.482;2023-12-28T15:18:15;0.10;99.90
46217;DHT22;47258;59.424;13.482;2023-12-28T15:20:43;0.00;99.90
46217;DHT22;47258;59.424;13.482;2023-12-28T15:23:13;0.00;99.90
46217;DHT22;47258;59.424;13.482;2023-12-28T15:25:42;-0.10;99.90